Time;durP1;ratioP1;P1;durP2;ratioP2;P2;SDS_P1;SDS_P2;PMS_P1;PMS_P2;Temp;Humidity;BMP_temperature;BMP_pressure;BME280_temperature;BME280_humidity;BME280_pressure;Samples;Min_cycle;Max_cycle;Signal;HPM_P1;HPM_P2
2024/02/02 00:00:26;;;;;;;;;;;;;;;;;;4924609;29;5037;-67
2024/02/02 00:02:51;;;;;;;;;;;;;;;;;;4922188;29;5122;-67
2024/02/02 00:05:17;;;;;;;;;;;;;;;;;;4926555;29;5138;-67
2024/02/02 00:07:42;;;;;;;;;;;;;;;;;;4920896;29;4731;-67
2024/02/02 00:10:08;;;;;;;;;;;;;;;;;;4920826;29;3584;-67
2024/02/02 00:12:33;;;;;;;;;;;;;;;;;;4901766;29;4529;-68
2024/02/02 00:14:59;;;;;;;;;;;;;;;;;;4924118;29;5072;-67
2024/02/02 00:17:24;;;;;;;;;;;;;;;;;;4924994;29;4834;-67
2024/02/02 00:19:49;;;;;;;;;;;;;;;;;;4924162;29;5077;-67
2024/02/02 00:22:15;;;;;;;;;;;;;;;;;;4888920;29;5155;-67
2024/02/02 00:24:40;;;;;;;;;;;;;;;;;;4920919;29;3775;-67
2024/02/02 00:27:05;;;;;;;;;;;;;;;;;;4925789;29;4500;-67
2024/02/02 00:29:31;;;;;;;;;;;;;;;;;;4931898;29;5584;-67
2024/02/02 00:31:56;;;;;;;;;;;;;;;;;;4926057;29;5111;-68
2024/02/02 00:34:21;;;;;;;;;;;;;;;;;;4929010;29;4676;-67
2024/02/02 00:36:46;;;;;;;;;;;;;;;;;;4933678;29;2861;-68
2024/02/02 00:39:12;;;;;;;;;;;;;;;;;;4930115;29;5048;-67
2024/02/02 00:41:37;;;;;;;;;;;;;;;;;;4926240;29;5216;-68
2024/02/02 00:44:03;;;;;;;;;;;;;;;;;;4928201;29;5125;-68
2024/02/02 00:46:28;;;;;;;;;;;;;;;;;;4907280;29;4718;-68
2024/02/02 00:48:54;;;;;;;;;;;;;;;;;;4928633;29;3508;-67
2024/02/02 00:51:19;;;;;;;;;;;;;;;;;;4929315;29;5216;-67
2024/02/02 00:53:44;;;;;;;;;;;;;;;;;;4927589;29;4558;-68
2024/02/02 00:56:10;;;;;;;;;;;;;;;;;;4927639;28;5583;-67
2024/02/02 00:58:35;;;;;;;;;;;;;;;;;;4928524;29;4614;-67
2024/02/02 01:01:00;;;;;;;;;;;;;;;;;;4927601;29;3609;-67
2024/02/02 01:03:26;;;;;;;;;;;;;;;;;;4929951;29;5125;-67
2024/02/02 01:05:51;;;;;;;;;;;;;;;;;;4931356;29;4458;-68
2024/02/02 01:08:16;;;;;;;;;;;;;;;;;;4912506;29;4748;-67
2024/02/02 01:10:42;;;;;;;;;;;;;;;;;;4925887;29;4886;-68
2024/02/02 01:13:07;;;;;;;;;;;;;;;;;;4926746;29;3664;-67
2024/02/02 01:15:32;;;;;;;;;;;;;;;;;;4929579;29;4754;-67
2024/02/02 01:17:58;;;;;;;;;;;;;;;;;;4931255;29;4701;-67
2024/02/02 01:20:23;;;;;;;;;;;;;;;;;;4929320;29;4935;-67
2024/02/02 01:22:48;;;;;;;;;;;;;;;;;;4927925;29;4735;-67
2024/02/02 01:25:16;;;;;;;;;;;;;;;;;;4927496;29;5294;-67
2024/02/02 01:27:42;;;;;;;;;;;;;;;;;;4922998;29;3647;-67
2024/02/02 01:30:07;;;;;;;;;;;;;;;;;;4930165;29;5046;-68
2024/02/02 01:32:33;;;;;;;;;;;;;;;;;;4925519;29;5130;-67
2024/02/02 01:34:58;;;;;;;;;;;;;;;;;;4927782;29;4581;-67
2024/02/02 01:37:23;;;;;;;;;;;;;;;;;;4925498;29;4791;-67
2024/02/02 01:39:49;;;;;;;;;;;;;;;;;;4929529;29;3438;-68
2024/02/02 01:42:14;;;;;;;;;;;;;;;;;;4926792;29;5063;-68
2024/02/02 01:44:40;;;;;;;;;;;;;;;;;;4927054;29;4960;-68
2024/02/02 01:47:05;;;;;;;;;;;;;;;;;;4930946;29;5384;-68
2024/02/02 01:49:30;;;;;;;;;;;;;;;;;;4909343;29;5024;-67
2024/02/02 01:51:56;;;;;;;;;;;;;;;;;;4931997;29;3650;-67
2024/02/02 01:54:21;;;;;;;;;;;;;;;;;;4931718;29;4956;-68
2024/02/02 01:56:46;;;;;;;;;;;;;;;;;;4926547;29;5349;-68
2024/02/02 01:59:12;;;;;;;;;;;;;;;;;;4911937;29;5211;-68
2024/02/02 02:01:37;;;;;;;;;;;;;;;;;;4927821;29;5148;-67
2024/02/02 02:04:03;;;;;;;;;;;;;;;;;;4931482;29;1085;-67
2024/02/02 02:06:28;;;;;;;;;;;;;;;;;;4927546;29;5095;-67
2024/02/02 02:08:54;;;;;;;;;;;;;;;;;;4927532;29;4498;-67
2024/02/02 02:11:19;;;;;;;;;;;;;;;;;;4929387;29;5064;-66
2024/02/02 02:13:44;;;;;;;;;;;;;;;;;;4930387;29;5083;-67
2024/02/02 02:16:09;;;;;;;;;;;;;;;;;;4932366;29;1238;-67
2024/02/02 02:18:35;;;;;;;;;;;;;;;;;;4928249;29;5056;-67
2024/02/02 02:21:19;;;;;;;;;;;;;;;;;;4908674;29;5115;-67
2024/02/02 02:23:44;;;;;;;;;;;;;;;;;;4924154;29;5125;-67
2024/02/02 02:26:10;;;;;;;;;;;;;;;;;;4928548;29;5131;-67
2024/02/02 02:28:35;;;;;;;;;;;;;;;;;;4910504;29;4620;-67
2024/02/02 02:31:00;;;;;;;;;;;;;;;;;;4926790;29;3686;-67
2024/02/02 02:33:26;;;;;;;;;;;;;;;;;;4907096;29;5101;-67
2024/02/02 02:35:51;;;;;;;;;;;;;;;;;;4924438;29;4506;-67
2024/02/02 02:38:16;;;;;;;;;;;;;;;;;;4921521;29;4720;-66
2024/02/02 02:40:42;;;;;;;;;;;;;;;;;;4923749;29;5117;-67
2024/02/02 02:43:07;;;;;;;;;;;;;;;;;;4926881;29;3528;-67
2024/02/02 02:45:32;;;;;;;;;;;;;;;;;;4927272;29;4434;-67
2024/02/02 02:47:57;;;;;;;;;;;;;;;;;;4918125;29;5047;-67
2024/02/02 02:50:23;;;;;;;;;;;;;;;;;;4923364;29;5106;-67
2024/02/02 02:52:48;;;;;;;;;;;;;;;;;;4922548;29;4770;-67
2024/02/02 02:55:13;;;;;;;;;;;;;;;;;;4925747;28;5107;-67
2024/02/02 02:57:39;;;;;;;;;;;;;;;;;;4927607;29;3835;-67
2024/02/02 03:00:04;;;;;;;;;;;;;;;;;;4923061;29;4538;-66
2024/02/02 03:02:29;;;;;;;;;;;;;;;;;;4926647;29;4534;-66
2024/02/02 03:04:55;;;;;;;;;;;;;;;;;;4927631;29;5041;-66
2024/02/02 03:07:20;;;;;;;;;;;;;;;;;;4922675;29;5144;-66
2024/02/02 03:09:45;;;;;;;;;;;;;;;;;;4925670;29;3796;-66
2024/02/02 03:12:11;;;;;;;;;;;;;;;;;;4926672;29;5066;-67
2024/02/02 03:14:36;;;;;;;;;;;;;;;;;;4927866;29;5162;-67
2024/02/02 03:17:02;;;;;;;;;;;;;;;;;;4925325;29;5127;-67
2024/02/02 03:19:27;;;;;;;;;;;;;;;;;;4928222;29;5218;-67
2024/02/02 03:21:52;;;;;;;;;;;;;;;;;;4910677;29;3600;-67
2024/02/02 03:24:18;;;;;;;;;;;;;;;;;;4926180;29;4959;-67
2024/02/02 03:26:43;;;;;;;;;;;;;;;;;;4927639;29;5092;-67
2024/02/02 03:29:08;;;;;;;;;;;;;;;;;;4929212;29;4514;-67
2024/02/02 03:31:34;;;;;;;;;;;;;;;;;;4926975;29;4807;-67
2024/02/02 03:33:59;;;;;;;;;;;;;;;;;;4919918;29;3825;-67
2024/02/02 03:36:24;;;;;;;;;;;;;;;;;;4927268;29;4644;-67
2024/02/02 03:38:50;;;;;;;;;;;;;;;;;;4929858;29;5074;-67
2024/02/02 03:41:17;;;;;;;;;;;;;;;;;;4928340;29;5201;-67
2024/02/02 03:43:42;;;;;;;;;;;;;;;;;;4929397;29;5163;-66
2024/02/02 03:46:08;;;;;;;;;;;;;;;;;;4928005;29;3520;-67
2024/02/02 03:48:33;;;;;;;;;;;;;;;;;;4923536;29;4891;-67
2024/02/02 03:50:58;;;;;;;;;;;;;;;;;;4909825;29;5270;-66
2024/02/02 03:53:24;;;;;;;;;;;;;;;;;;4928171;29;5305;-67
2024/02/02 03:55:49;;;;;;;;;;;;;;;;;;4925888;28;5086;-66
2024/02/02 03:58:14;;;;;;;;;;;;;;;;;;4924127;29;4618;-66
2024/02/02 04:00:40;;;;;;;;;;;;;;;;;;4926865;29;3523;-67
2024/02/02 04:03:06;;;;;;;;;;;;;;;;;;4925679;29;5128;-66
2024/02/02 04:05:31;;;;;;;;;;;;;;;;;;4911796;29;5070;-67
2024/02/02 04:07:57;;;;;;;;;;;;;;;;;;4929038;29;4814;-67
2024/02/02 04:10:22;;;;;;;;;;;;;;;;;;4932008;29;5152;-67
2024/02/02 04:12:47;;;;;;;;;;;;;;;;;;4928977;29;3548;-67
2024/02/02 04:15:13;;;;;;;;;;;;;;;;;;4926433;29;5148;-67
2024/02/02 04:17:38;;;;;;;;;;;;;;;;;;4927022;29;4529;-67
2024/02/02 04:20:04;;;;;;;;;;;;;;;;;;4928136;29;4616;-67
2024/02/02 04:22:29;;;;;;;;;;;;;;;;;;4929491;29;5083;-67
2024/02/02 04:24:54;;;;;;;;;;;;;;;;;;4907542;29;3739;-67
2024/02/02 04:27:20;;;;;;;;;;;;;;;;;;4927512;29;4952;-67
2024/02/02 04:29:45;;;;;;;;;;;;;;;;;;4924388;29;4525;-67
2024/02/02 04:32:10;;;;;;;;;;;;;;;;;;4928933;29;4539;-67
2024/02/02 04:34:36;;;;;;;;;;;;;;;;;;4927903;29;5141;-67
2024/02/02 04:37:01;;;;;;;;;;;;;;;;;;4910795;29;3569;-66
2024/02/02 04:39:26;;;;;;;;;;;;;;;;;;4909340;29;4939;-66
2024/02/02 04:41:52;;;;;;;;;;;;;;;;;;4928403;29;4489;-66
2024/02/02 04:44:17;;;;;;;;;;;;;;;;;;4927742;29;5126;-67
2024/02/02 04:46:42;;;;;;;;;;;;;;;;;;4929764;29;5084;-67
2024/02/02 04:49:08;;;;;;;;;;;;;;;;;;4933393;29;1981;-66
2024/02/02 04:51:33;;;;;;;;;;;;;;;;;;4932112;29;5059;-67
2024/02/02 04:53:58;;;;;;;;;;;;;;;;;;4930365;29;5123;-67
2024/02/02 04:56:24;;;;;;;;;;;;;;;;;;4927837;28;4845;-67
2024/02/02 04:58:53;;;;;;;;;;;;;;;;;;4927329;29;5080;-66
2024/02/02 05:01:19;;;;;;;;;;;;;;;;;;4900880;29;4548;-66
2024/02/02 05:03:44;;;;;;;;;;;;;;;;;;4928863;29;1617;-67
2024/02/02 05:06:10;;;;;;;;;;;;;;;;;;4912463;29;6904;-67
2024/02/02 05:08:35;;;;;;;;;;;;;;;;;;4931712;29;4960;-66
2024/02/02 05:11:00;;;;;;;;;;;;;;;;;;4929736;29;4717;-66
2024/02/02 05:13:26;;;;;;;;;;;;;;;;;;4925536;29;5138;-67
2024/02/02 05:15:51;;;;;;;;;;;;;;;;;;4911636;29;3379;-66
2024/02/02 05:18:17;;;;;;;;;;;;;;;;;;4924954;29;4728;-66
2024/02/02 05:20:42;;;;;;;;;;;;;;;;;;4927372;29;4928;-67
2024/02/02 05:23:08;;;;;;;;;;;;;;;;;;4900926;29;5071;-67
2024/02/02 05:25:34;;;;;;;;;;;;;;;;;;4925900;29;5144;-67
2024/02/02 05:27:59;;;;;;;;;;;;;;;;;;4929783;29;3481;-67
2024/02/02 05:30:25;;;;;;;;;;;;;;;;;;4927753;29;4956;-67
2024/02/02 05:32:50;;;;;;;;;;;;;;;;;;4928320;29;4509;-66
2024/02/02 05:35:15;;;;;;;;;;;;;;;;;;4931120;29;4612;-67
2024/02/02 05:37:41;;;;;;;;;;;;;;;;;;4926207;29;5130;-66
2024/02/02 05:40:07;;;;;;;;;;;;;;;;;;4931625;29;3720;-67
2024/02/02 05:42:33;;;;;;;;;;;;;;;;;;4928304;29;4477;-66
2024/02/02 05:44:58;;;;;;;;;;;;;;;;;;4925198;29;5057;-67
2024/02/02 05:47:23;;;;;;;;;;;;;;;;;;4920702;29;5041;-68
2024/02/02 05:49:49;;;;;;;;;;;;;;;;;;4915527;29;4826;-65
2024/02/02 05:52:14;;;;;;;;;;;;;;;;;;4920408;29;5085;-64
2024/02/02 05:54:40;;;;;;;;;;;;;;;;;;4923247;29;3456;-65
2024/02/02 05:57:05;;;;;;;;;;;;;;;;;;4927282;28;4512;-66
2024/02/02 05:59:30;;;;;;;;;;;;;;;;;;4921633;29;5190;-65
2024/02/02 06:01:56;;;;;;;;;;;;;;;;;;4927381;29;4548;-65
2024/02/02 06:04:21;;;;;;;;;;;;;;;;;;4926483;29;5848;-66
2024/02/02 06:06:46;;;;;;;;;;;;;;;;;;4927156;29;3473;-65
2024/02/02 06:09:13;;;;;;;;;;;;;;;;;;4931035;29;5176;-65
2024/02/02 06:11:39;;;;;;;;;;;;;;;;;;4930113;29;4899;-65
2024/02/02 06:14:04;;;;;;;;;;;;;;;;;;4919716;29;4557;-66
2024/02/02 06:16:29;;;;;;;;;;;;;;;;;;4927736;29;5158;-65
2024/02/02 06:18:55;;;;;;;;;;;;;;;;;;4932182;29;1222;-65
2024/02/02 06:21:20;;;;;;;;;;;;;;;;;;4931392;29;4642;-64
2024/02/02 06:23:45;;;;;;;;;;;;;;;;;;4929756;29;5143;-64
2024/02/02 06:26:11;;;;;;;;;;;;;;;;;;4931156;29;5040;-66
2024/02/02 06:28:36;;;;;;;;;;;;;;;;;;4930932;29;5149;-64
2024/02/02 06:31:01;;;;;;;;;;;;;;;;;;4930948;29;3418;-64
2024/02/02 06:33:26;;;;;;;;;;;;;;;;;;4931788;29;4511;-65
2024/02/02 06:35:52;;;;;;;;;;;;;;;;;;4910740;29;4757;-65
2024/02/02 06:38:17;;;;;;;;;;;;;;;;;;4928366;29;4594;-65
2024/02/02 06:40:42;;;;;;;;;;;;;;;;;;4928629;29;5211;-64
2024/02/02 06:43:08;;;;;;;;;;;;;;;;;;4931489;29;1689;-65
2024/02/02 06:45:33;;;;;;;;;;;;;;;;;;4928466;29;5223;-65
2024/02/02 06:47:58;;;;;;;;;;;;;;;;;;4930795;29;5037;-65
2024/02/02 06:50:24;;;;;;;;;;;;;;;;;;4930547;29;4497;-65
2024/02/02 06:52:49;;;;;;;;;;;;;;;;;;4929749;29;4810;-66
2024/02/02 06:55:14;;;;;;;;;;;;;;;;;;4930680;28;4511;-64
2024/02/02 06:57:40;;;;;;;;;;;;;;;;;;4914491;29;1084;-65
2024/02/02 07:00:08;;;;;;;;;;;;;;;;;;4909439;29;4586;-65
2024/02/02 07:02:34;;;;;;;;;;;;;;;;;;4898039;29;5245;-65
2024/02/02 07:04:59;;;;;;;;;;;;;;;;;;4929988;29;4686;-65
2024/02/02 07:07:24;;;;;;;;;;;;;;;;;;4909769;29;4544;-64
2024/02/02 07:09:51;;;;;;;;;;;;;;;;;;4911708;29;3398;-65
2024/02/02 07:12:35;;;;;;;;;;;;;;;;;;4930460;29;4711;-66
2024/02/02 07:15:04;;;;;;;;;;;;;;;;;;4930724;29;4459;-65
2024/02/02 07:17:39;;;;;;;;;;;;;;;;;;4913859;29;5130;-65
2024/02/02 07:20:23;;;;;;;;;;;;;;;;;;4913467;29;4925;-66
2024/02/02 07:22:52;;;;;;;;;;;;;;;;;;4928950;29;4945;-65
2024/02/02 07:25:18;;;;;;;;;;;;;;;;;;4909786;29;4909;-65
2024/02/02 07:27:46;;;;;;;;;;;;;;;;;;4931106;29;1167;-66
2024/02/02 07:30:12;;;;;;;;;;;;;;;;;;4929961;29;4788;-65
2024/02/02 07:32:37;;;;;;;;;;;;;;;;;;4913237;29;5133;-65
2024/02/02 07:35:03;;;;;;;;;;;;;;;;;;4913047;29;5121;-65
2024/02/02 07:37:31;;;;;;;;;;;;;;;;;;4929107;29;5167;-65
2024/02/02 07:39:58;;;;;;;;;;;;;;;;;;4934903;29;1116;-66
2024/02/02 07:42:23;;;;;;;;;;;;;;;;;;4934106;29;4965;-66
2024/02/02 07:44:48;;;;;;;;;;;;;;;;;;4934621;29;5000;-64
2024/02/02 07:47:14;;;;;;;;;;;;;;;;;;4933204;29;4726;-65
2024/02/02 07:49:39;;;;;;;;;;;;;;;;;;4933248;29;5143;-65
2024/02/02 07:52:04;;;;;;;;;;;;;;;;;;4931979;29;3348;-65
2024/02/02 07:54:30;;;;;;;;;;;;;;;;;;4934063;29;4461;-65
2024/02/02 07:56:55;;;;;;;;;;;;;;;;;;4934082;28;5041;-65
2024/02/02 07:59:20;;;;;;;;;;;;;;;;;;4933986;29;5070;-65
2024/02/02 08:01:46;;;;;;;;;;;;;;;;;;4930223;29;5111;-65
2024/02/02 08:04:11;;;;;;;;;;;;;;;;;;4934510;29;1178;-65
2024/02/02 08:06:36;;;;;;;;;;;;;;;;;;4931755;29;5029;-65
2024/02/02 08:09:01;;;;;;;;;;;;;;;;;;4934221;29;4577;-66
2024/02/02 08:11:29;;;;;;;;;;;;;;;;;;4933316;29;4497;-65
2024/02/02 08:13:55;;;;;;;;;;;;;;;;;;4933156;29;4493;-65
2024/02/02 08:16:20;;;;;;;;;;;;;;;;;;4926367;29;5077;-65
2024/02/02 08:18:45;;;;;;;;;;;;;;;;;;4931434;29;3524;-66
2024/02/02 08:21:11;;;;;;;;;;;;;;;;;;4933781;29;5129;-65
2024/02/02 08:23:37;;;;;;;;;;;;;;;;;;4915713;29;4496;-65
2024/02/02 08:26:02;;;;;;;;;;;;;;;;;;4932716;29;4698;-65
2024/02/02 08:28:28;;;;;;;;;;;;;;;;;;4908037;29;5089;-64
2024/02/02 08:30:53;;;;;;;;;;;;;;;;;;4934103;29;1183;-65
2024/02/02 08:33:19;;;;;;;;;;;;;;;;;;4917015;29;4508;-64
2024/02/02 08:35:44;;;;;;;;;;;;;;;;;;4914574;29;5073;-64
2024/02/02 08:38:11;;;;;;;;;;;;;;;;;;4932195;29;5334;-65
2024/02/02 08:40:42;;;;;;;;;;;;;;;;;;4933478;29;4501;-65
2024/02/02 08:43:08;;;;;;;;;;;;;;;;;;4930764;29;1892;-65
2024/02/02 08:45:33;;;;;;;;;;;;;;;;;;4933321;29;4961;-65
2024/02/02 08:47:59;;;;;;;;;;;;;;;;;;4933505;29;4439;-65
2024/02/02 08:50:24;;;;;;;;;;;;;;;;;;4929596;29;5107;-65
2024/02/02 08:52:49;;;;;;;;;;;;;;;;;;4930002;29;5204;-65
2024/02/02 08:55:24;;;;;;;;;;;;;;;;;;4910383;28;5326;-64
2024/02/02 08:58:18;;;;;;;;;;;;;;;;;;4932675;29;1183;-65
2024/02/02 09:00:43;;;;;;;;;;;;;;;;;;4894976;29;4951;-66
2024/02/02 09:03:21;;;;;;;;;;;;;;;;;;4932591;29;5030;-65
2024/02/02 09:05:56;;;;;;;;;;;;;;;;;;4927901;29;5316;-65
2024/02/02 09:08:25;;;;;;;;;;;;;;;;;;4928491;29;4814;-65
2024/02/02 09:10:53;;;;;;;;;;;;;;;;;;4930218;29;5036;-65
2024/02/02 09:13:20;;;;;;;;;;;;;;;;;;4931924;29;5181;-65
2024/02/02 09:15:45;;;;;;;;;;;;;;;;;;4933391;29;1206;-65
2024/02/02 09:18:11;;;;;;;;;;;;;;;;;;4930901;29;5171;-64
2024/02/02 09:20:40;;;;;;;;;;;;;;;;;;4910798;29;4977;-65
2024/02/02 09:23:05;;;;;;;;;;;;;;;;;;4929055;29;4646;-65
2024/02/02 09:25:32;;;;;;;;;;;;;;;;;;4915574;29;4498;-65
2024/02/02 09:27:57;;;;;;;;;;;;;;;;;;4931285;29;3657;-64
2024/02/02 09:30:22;;;;;;;;;;;;;;;;;;4932138;29;5082;-64
2024/02/02 09:32:48;;;;;;;;;;;;;;;;;;4925989;29;5044;-65
2024/02/02 09:35:32;;;;;;;;;;;;;;;;;;4932731;29;5023;-65
2024/02/02 09:37:57;;;;;;;;;;;;;;;;;;4930941;29;5015;-64
2024/02/02 09:40:39;;;;;;;;;;;;;;;;;;4931799;29;4943;-65
2024/02/02 09:43:08;;;;;;;;;;;;;;;;;;4913037;29;3543;-64
2024/02/02 09:45:42;;;;;;;;;;;;;;;;;;4932246;29;5190;-65
2024/02/02 09:48:21;;;;;;;;;;;;;;;;;;4929976;29;4728;-65
2024/02/02 09:50:53;;;;;;;;;;;;;;;;;;4913677;29;5143;-66
2024/02/02 09:53:48;;;;;;;;;;;;;;;;;;4914947;29;4502;-66
2024/02/02 09:56:19;;;;;;;;;;;;;;;;;;4921142;28;4926;-65
2024/02/02 09:59:11;;;;;;;;;;;;;;;;;;4928696;29;4561;-65
2024/02/02 10:01:42;;;;;;;;;;;;;;;;;;4924441;29;5032;-66
2024/02/02 10:04:07;;;;;;;;;;;;;;;;;;4930430;29;3666;-65
2024/02/02 10:06:43;;;;;;;;;;;;;;;;;;4927662;29;4971;-66
2024/02/02 10:09:26;;;;;;;;;;;;;;;;;;4907240;29;4536;-65
2024/02/02 10:11:54;;;;;;;;;;;;;;;;;;4907961;29;5154;-65
2024/02/02 10:14:29;;;;;;;;;;;;;;;;;;4931246;29;5070;-65
2024/02/02 10:17:13;;;;;;;;;;;;;;;;;;4931455;29;4530;-65
2024/02/02 10:19:47;;;;;;;;;;;;;;;;;;4928860;29;5192;-65
2024/02/02 10:22:18;;;;;;;;;;;;;;;;;;4932426;29;4508;-64
2024/02/02 10:24:54;;;;;;;;;;;;;;;;;;4930149;29;1107;-65
2024/02/02 10:27:20;;;;;;;;;;;;;;;;;;4906260;29;4618;-65
2024/02/02 10:29:51;;;;;;;;;;;;;;;;;;4927827;29;5214;-65
2024/02/02 10:32:22;;;;;;;;;;;;;;;;;;4926428;29;5008;-65
2024/02/02 10:34:48;;;;;;;;;;;;;;;;;;4929627;29;4710;-65
2024/02/02 10:37:27;;;;;;;;;;;;;;;;;;4931410;29;4763;-63
2024/02/02 10:39:55;;;;;;;;;;;;;;;;;;4912121;29;1115;-63
2024/02/02 10:42:23;;;;;;;;;;;;;;;;;;4931132;29;5003;-65
2024/02/02 10:45:15;;;;;;;;;;;;;;;;;;4913642;29;5533;-65
2024/02/02 10:47:43;;;;;;;;;;;;;;;;;;4920440;29;5040;-65
2024/02/02 10:50:19;;;;;;;;;;;;;;;;;;4929966;29;4777;-65
2024/02/02 10:52:45;;;;;;;;;;;;;;;;;;4931040;29;4691;-64
2024/02/02 10:55:24;;;;;;;;;;;;;;;;;;4925031;29;2031;-64
2024/02/02 10:57:49;;;;;;;;;;;;;;;;;;4928916;29;4569;-64
2024/02/02 11:00:25;;;;;;;;;;;;;;;;;;4912665;29;4612;-65
2024/02/02 11:02:51;;;;;;;;;;;;;;;;;;4929367;29;4450;-65
2024/02/02 11:05:26;;;;;;;;;;;;;;;;;;4918732;29;5146;-66
2024/02/02 11:07:54;;;;;;;;;;;;;;;;;;4927816;29;4526;-65
2024/02/02 11:10:20;;;;;;;;;;;;;;;;;;4913129;29;4687;-64
2024/02/02 11:12:49;;;;;;;;;;;;;;;;;;4930310;29;1434;-65
2024/02/02 11:15:17;;;;;;;;;;;;;;;;;;4928835;29;4985;-65
2024/02/02 11:18:05;;;;;;;;;;;;;;;;;;4930444;29;4935;-65
2024/02/02 11:20:50;;;;;;;;;;;;;;;;;;4906893;29;5141;-65
2024/02/02 11:23:28;;;;;;;;;;;;;;;;;;4926499;29;5067;-65
2024/02/02 11:25:56;;;;;;;;;;;;;;;;;;4930676;29;4785;-65
2024/02/02 11:28:40;;;;;;;;;;;;;;;;;;4907312;29;4980;-65
2024/02/02 11:31:19;;;;;;;;;;;;;;;;;;4913778;29;1266;-65
2024/02/02 11:33:51;;;;;;;;;;;;;;;;;;4912302;29;4980;-64
2024/02/02 11:36:31;;;;;;;;;;;;;;;;;;4909013;29;4672;-65
2024/02/02 11:39:04;;;;;;;;;;;;;;;;;;4929383;29;4731;-65
2024/02/02 11:41:31;;;;;;;;;;;;;;;;;;4912594;29;4532;-66
2024/02/02 11:43:56;;;;;;;;;;;;;;;;;;4913605;29;5172;-65
2024/02/02 11:46:23;;;;;;;;;;;;;;;;;;4913271;29;5092;-65
2024/02/02 11:48:49;;;;;;;;;;;;;;;;;;4929763;29;2340;-65
2024/02/02 11:51:14;;;;;;;;;;;;;;;;;;4929820;29;4555;-65
2024/02/02 11:53:40;;;;;;;;;;;;;;;;;;4897384;29;4733;-66
2024/02/02 11:56:21;;;;;;;;;;;;;;;;;;4930477;28;4724;-66
2024/02/02 11:58:48;;;;;;;;;;;;;;;;;;4930378;29;4772;-66
2024/02/02 12:01:23;;;;;;;;;;;;;;;;;;4928810;29;5067;-65
2024/02/02 12:03:59;;;;;;;;;;;;;;;;;;4926290;29;3557;-65
2024/02/02 12:06:25;;;;;;;;;;;;;;;;;;4905786;29;5055;-65
2024/02/02 12:08:50;;;;;;;;;;;;;;;;;;4895871;29;5112;-65
2024/02/02 12:11:16;;;;;;;;;;;;;;;;;;4929446;29;4499;-65
2024/02/02 12:13:42;;;;;;;;;;;;;;;;;;4929763;29;5213;-65
2024/02/02 12:16:09;;;;;;;;;;;;;;;;;;4895291;29;2193;-65
2024/02/02 12:18:36;;;;;;;;;;;;;;;;;;4928485;29;4907;-65
2024/02/02 12:21:01;;;;;;;;;;;;;;;;;;4929319;29;5001;-65
2024/02/02 12:23:26;;;;;;;;;;;;;;;;;;4929497;29;4522;-64
2024/02/02 12:25:52;;;;;;;;;;;;;;;;;;4916397;29;4692;-65
2024/02/02 12:28:17;;;;;;;;;;;;;;;;;;4932884;29;4673;-64
2024/02/02 12:30:43;;;;;;;;;;;;;;;;;;4912787;29;3528;-65
2024/02/02 12:33:08;;;;;;;;;;;;;;;;;;4931218;29;4713;-66
2024/02/02 12:35:33;;;;;;;;;;;;;;;;;;4932895;29;5188;-67
2024/02/02 12:37:59;;;;;;;;;;;;;;;;;;4932571;29;5092;-64
2024/02/02 12:40:25;;;;;;;;;;;;;;;;;;4933197;29;5018;-65
2024/02/02 12:42:50;;;;;;;;;;;;;;;;;;4932726;29;1451;-65
2024/02/02 12:45:16;;;;;;;;;;;;;;;;;;4909899;29;4606;-65
2024/02/02 12:47:41;;;;;;;;;;;;;;;;;;4904952;29;5147;-66
2024/02/02 12:50:17;;;;;;;;;;;;;;;;;;4929738;29;4946;-66
2024/02/02 12:52:46;;;;;;;;;;;;;;;;;;4932894;29;5068;-65
2024/02/02 12:55:12;;;;;;;;;;;;;;;;;;4932776;28;4687;-64
2024/02/02 12:57:37;;;;;;;;;;;;;;;;;;4933011;29;1096;-66
2024/02/02 13:00:03;;;;;;;;;;;;;;;;;;4931473;29;4666;-65
2024/02/02 13:02:29;;;;;;;;;;;;;;;;;;4930725;29;5180;-66
2024/02/02 13:04:54;;;;;;;;;;;;;;;;;;4912698;29;5057;-66
2024/02/02 13:07:20;;;;;;;;;;;;;;;;;;4930772;29;4487;-66
2024/02/02 13:09:51;;;;;;;;;;;;;;;;;;4915954;29;1978;-65
2024/02/02 13:12:29;;;;;;;;;;;;;;;;;;4929751;29;4702;-66
2024/02/02 13:15:05;;;;;;;;;;;;;;;;;;4927430;29;5192;-66
2024/02/02 13:17:30;;;;;;;;;;;;;;;;;;4930819;29;5081;-65
2024/02/02 13:20:00;;;;;;;;;;;;;;;;;;4929548;29;4907;-65
2024/02/02 13:22:29;;;;;;;;;;;;;;;;;;4931610;29;4743;-66
2024/02/02 13:24:57;;;;;;;;;;;;;;;;;;4931052;29;1056;-66
2024/02/02 13:27:23;;;;;;;;;;;;;;;;;;4931136;29;5184;-66
2024/02/02 13:29:51;;;;;;;;;;;;;;;;;;4931868;29;5871;-64
2024/02/02 13:32:18;;;;;;;;;;;;;;;;;;4932538;29;4666;-65
2024/02/02 13:34:43;;;;;;;;;;;;;;;;;;4912178;29;4549;-65
2024/02/02 13:37:09;;;;;;;;;;;;;;;;;;4894811;29;3572;-65
2024/02/02 13:39:35;;;;;;;;;;;;;;;;;;4914685;29;5024;-65
2024/02/02 13:42:01;;;;;;;;;;;;;;;;;;4931297;29;5024;-66
2024/02/02 13:44:27;;;;;;;;;;;;;;;;;;4931898;29;5981;-65
2024/02/02 13:46:53;;;;;;;;;;;;;;;;;;4931024;29;4542;-65
2024/02/02 13:49:25;;;;;;;;;;;;;;;;;;4930881;29;5302;-65
2024/02/02 13:51:51;;;;;;;;;;;;;;;;;;4932431;29;1147;-65
2024/02/02 13:54:17;;;;;;;;;;;;;;;;;;4914788;29;5139;-66
2024/02/02 13:56:43;;;;;;;;;;;;;;;;;;4932212;28;5202;-65
2024/02/02 13:59:14;;;;;;;;;;;;;;;;;;4923819;29;4518;-65
2024/02/02 14:01:40;;;;;;;;;;;;;;;;;;4908258;29;4794;-65
2024/02/02 14:04:05;;;;;;;;;;;;;;;;;;4914553;29;3505;-65
2024/02/02 14:06:31;;;;;;;;;;;;;;;;;;4931591;29;4879;-66
2024/02/02 14:08:57;;;;;;;;;;;;;;;;;;4930252;29;4644;-64
2024/02/02 14:11:23;;;;;;;;;;;;;;;;;;4913208;29;4908;-65
2024/02/02 14:13:48;;;;;;;;;;;;;;;;;;4913147;29;4898;-65
2024/02/02 14:16:17;;;;;;;;;;;;;;;;;;4928377;29;5018;-65
2024/02/02 14:18:42;;;;;;;;;;;;;;;;;;4924334;29;3686;-64
2024/02/02 14:21:08;;;;;;;;;;;;;;;;;;4906981;29;5055;-65
2024/02/02 14:23:33;;;;;;;;;;;;;;;;;;4929284;29;5054;-65
2024/02/02 14:26:09;;;;;;;;;;;;;;;;;;4928663;29;4668;-65
2024/02/02 14:28:34;;;;;;;;;;;;;;;;;;4931094;29;5220;-65
2024/02/02 14:31:00;;;;;;;;;;;;;;;;;;4930278;29;3434;-66
2024/02/02 14:33:25;;;;;;;;;;;;;;;;;;4928361;29;5007;-66
2024/02/02 14:35:50;;;;;;;;;;;;;;;;;;4922780;29;4529;-67
2024/02/02 14:38:16;;;;;;;;;;;;;;;;;;4927819;29;5641;-67
2024/02/02 14:40:41;;;;;;;;;;;;;;;;;;4928950;29;4482;-67
2024/02/02 14:43:06;;;;;;;;;;;;;;;;;;4926503;29;3716;-67
2024/02/02 14:45:33;;;;;;;;;;;;;;;;;;4928380;29;4541;-67
2024/02/02 14:47:58;;;;;;;;;;;;;;;;;;4923803;29;4958;-67
2024/02/02 14:50:25;;;;;;;;;;;;;;;;;;4925569;29;5111;-67
2024/02/02 14:52:50;;;;;;;;;;;;;;;;;;4930485;29;5003;-67
2024/02/02 14:55:15;;;;;;;;;;;;;;;;;;4928980;28;5173;-67
2024/02/02 14:57:41;;;;;;;;;;;;;;;;;;4928954;29;3433;-67
2024/02/02 15:00:18;;;;;;;;;;;;;;;;;;4917678;29;5120;-67
2024/02/02 15:02:45;;;;;;;;;;;;;;;;;;4928126;29;5074;-67
2024/02/02 15:05:10;;;;;;;;;;;;;;;;;;4924150;29;5027;-67
2024/02/02 15:07:36;;;;;;;;;;;;;;;;;;4925841;29;5204;-67
2024/02/02 15:10:02;;;;;;;;;;;;;;;;;;4911837;29;3724;-67
2024/02/02 15:12:27;;;;;;;;;;;;;;;;;;4923705;29;4563;-67
2024/02/02 15:14:53;;;;;;;;;;;;;;;;;;4924569;29;5579;-67
2024/02/02 15:17:19;;;;;;;;;;;;;;;;;;4920857;29;5125;-67
2024/02/02 15:19:44;;;;;;;;;;;;;;;;;;4922835;29;5114;-67
2024/02/02 15:22:10;;;;;;;;;;;;;;;;;;4906989;29;3690;-67
2024/02/02 15:24:35;;;;;;;;;;;;;;;;;;4919625;29;4467;-64
2024/02/02 15:27:00;;;;;;;;;;;;;;;;;;4928062;29;4869;-64
2024/02/02 15:29:26;;;;;;;;;;;;;;;;;;4924865;29;4584;-62
2024/02/02 15:31:52;;;;;;;;;;;;;;;;;;4925069;29;5190;-63
2024/02/02 15:34:17;;;;;;;;;;;;;;;;;;4918125;29;5068;-66
2024/02/02 15:36:42;;;;;;;;;;;;;;;;;;4918952;29;3652;-62
2024/02/02 15:39:10;;;;;;;;;;;;;;;;;;4925193;29;5034;-61
2024/02/02 15:41:35;;;;;;;;;;;;;;;;;;4923831;29;4941;-62
2024/02/02 15:44:01;;;;;;;;;;;;;;;;;;4925990;29;4625;-60
2024/02/02 15:46:26;;;;;;;;;;;;;;;;;;4927634;29;5118;-62
2024/02/02 15:48:52;;;;;;;;;;;;;;;;;;4909120;29;3628;-61
2024/02/02 15:51:17;;;;;;;;;;;;;;;;;;4924680;29;5070;-61
2024/02/02 15:53:42;;;;;;;;;;;;;;;;;;4925062;29;5216;-59
2024/02/02 15:56:17;;;;;;;;;;;;;;;;;;4920566;28;5122;-60
2024/02/02 15:58:43;;;;;;;;;;;;;;;;;;4926289;29;5070;-59
2024/02/02 16:01:08;;;;;;;;;;;;;;;;;;4929659;29;3626;-59
2024/02/02 16:03:36;;;;;;;;;;;;;;;;;;4930892;29;4435;-61
2024/02/02 16:06:01;;;;;;;;;;;;;;;;;;4931089;29;5043;-60
2024/02/02 16:08:28;;;;;;;;;;;;;;;;;;4933096;29;5164;-60
2024/02/02 16:10:53;;;;;;;;;;;;;;;;;;4933444;29;5354;-60
2024/02/02 16:13:18;;;;;;;;;;;;;;;;;;4931870;29;4561;-60
2024/02/02 16:15:44;;;;;;;;;;;;;;;;;;4934310;29;1667;-60
2024/02/02 16:18:09;;;;;;;;;;;;;;;;;;4933159;29;5113;-61
2024/02/02 16:20:36;;;;;;;;;;;;;;;;;;4933130;29;4554;-58
2024/02/02 16:23:01;;;;;;;;;;;;;;;;;;4932162;29;4635;-59
2024/02/02 16:25:27;;;;;;;;;;;;;;;;;;4933309;29;5079;-59
2024/02/02 16:27:52;;;;;;;;;;;;;;;;;;4908222;29;1698;-60
2024/02/02 16:30:17;;;;;;;;;;;;;;;;;;4932974;29;4472;-60
2024/02/02 16:32:43;;;;;;;;;;;;;;;;;;4932253;29;5134;-61
2024/02/02 16:35:08;;;;;;;;;;;;;;;;;;4931035;29;5155;-60
2024/02/02 16:37:38;;;;;;;;;;;;;;;;;;4932612;29;4711;-59
2024/02/02 16:40:03;;;;;;;;;;;;;;;;;;4929844;29;3638;-60
2024/02/02 16:42:29;;;;;;;;;;;;;;;;;;4930993;29;4953;-61
2024/02/02 16:44:54;;;;;;;;;;;;;;;;;;4928724;29;5024;-60
2024/02/02 16:47:19;;;;;;;;;;;;;;;;;;4931172;29;4949;-61
2024/02/02 16:49:46;;;;;;;;;;;;;;;;;;4931378;29;5075;-60
2024/02/02 16:52:11;;;;;;;;;;;;;;;;;;4930492;29;3603;-60
2024/02/02 16:54:37;;;;;;;;;;;;;;;;;;4931740;29;4608;-60
2024/02/02 16:57:02;;;;;;;;;;;;;;;;;;4910154;29;5139;-61
2024/02/02 16:59:27;;;;;;;;;;;;;;;;;;4928286;29;4571;-60
2024/02/02 17:01:53;;;;;;;;;;;;;;;;;;4930610;29;5276;-61